createdAt,value
2023-06-17T00:04:04.775Z,58.38
2023-06-17T00:09:08.598Z,57.61
2023-06-17T00:14:10.842Z,58.39
2023-06-17T00:19:17.374Z,57.19
2023-06-17T00:24:22.972Z,57.11
2023-06-17T00:29:25.217Z,57.60
2023-06-17T00:34:27.448Z,57.87
2023-06-17T00:39:29.748Z,58.16
2023-06-17T00:44:32.084Z,57.97
2023-06-17T00:49:37.644Z,57.25
2023-06-17T00:54:41.989Z,57.23
2023-06-17T00:59:45.976Z,57.29
2023-06-17T01:04:48.508Z,57.44
2023-06-17T01:10:06.647Z,57.22
2023-06-17T01:15:12.151Z,56.61
2023-06-17T01:20:15.306Z,58.86
2023-06-17T01:25:17.623Z,59.10
2023-06-17T01:30:21.777Z,58.96
2023-06-17T01:35:25.759Z,59.23
2023-06-17T01:40:31.631Z,58.66
2023-06-17T01:45:34.755Z,58.53
2023-06-17T01:50:37.437Z,58.63
2023-06-17T01:55:39.786Z,58.66
2023-06-17T02:00:42.092Z,58.61
2023-06-17T02:05:44.693Z,58.66
2023-06-17T02:10:46.969Z,58.87
2023-06-17T02:15:49.248Z,58.88
2023-06-17T02:20:51.807Z,59.40
2023-06-17T02:25:54.313Z,60.55
2023-06-17T02:30:56.621Z,60.70
2023-06-17T02:35:59.415Z,60.90
2023-06-17T02:41:01.702Z,61.92
2023-06-17T02:46:04.016Z,62.10
2023-06-17T02:51:06.305Z,62.57
2023-06-17T02:56:08.642Z,62.69
2023-06-17T03:01:12.753Z,62.49
2023-06-17T03:06:17.253Z,63.28
2023-06-17T03:11:19.591Z,63.53
2023-06-17T03:16:22.474Z,63.62
2023-06-17T03:21:24.713Z,63.42
2023-06-17T03:26:27.185Z,63.80
2023-06-17T03:31:29.752Z,64.12
2023-06-17T03:36:32.004Z,64.47
2023-06-17T03:41:34.223Z,64.40
2023-06-17T03:46:36.481Z,64.50
2023-06-17T03:51:41.202Z,64.21
2023-06-17T03:56:43.542Z,64.18
2023-06-17T04:01:45.845Z,64.03
2023-06-17T04:06:48.055Z,64.57
2023-06-17T04:11:50.265Z,65.02
2023-06-17T04:16:52.541Z,64.62
2023-06-17T04:21:54.864Z,64.12
2023-06-17T04:26:57.155Z,64.42
2023-06-17T04:31:59.412Z,64.79
2023-06-17T04:37:02.095Z,65.90
2023-06-17T04:42:04.607Z,65.46
2023-06-17T04:47:11.851Z,64.99
2023-06-17T04:52:20.934Z,64.63
2023-06-17T04:57:23.262Z,64.55
2023-06-17T05:02:25.594Z,64.87
2023-06-17T05:07:28.010Z,64.84
2023-06-17T05:12:30.539Z,64.67
2023-06-17T05:17:32.861Z,64.89
2023-06-17T05:22:35.202Z,65.04
2023-06-17T05:27:39.107Z,64.97
2023-06-17T05:32:41.435Z,65.07
2023-06-17T05:37:43.714Z,64.72
2023-06-17T05:42:45.947Z,65.09
2023-06-17T05:47:48.239Z,65.00
2023-06-17T05:52:50.454Z,65.14
2023-06-17T05:57:53.625Z,65.50
2023-06-17T06:02:55.958Z,65.88
2023-06-17T06:07:58.241Z,65.21
2023-06-17T06:13:01.036Z,65.03
2023-06-17T06:18:03.685Z,64.89
2023-06-17T06:23:06.010Z,65.12
2023-06-17T06:28:08.278Z,64.82
2023-06-17T06:33:10.635Z,64.65
2023-06-17T06:38:12.869Z,64.35
2023-06-17T06:43:15.144Z,63.86
2023-06-17T06:48:17.358Z,63.02
2023-06-17T06:53:20.912Z,62.35
2023-06-17T06:58:23.168Z,62.25
2023-06-17T07:03:25.588Z,61.42
2023-06-17T07:08:27.869Z,60.94
2023-06-17T07:13:30.808Z,60.06
2023-06-17T07:18:33.482Z,59.69
2023-06-17T07:23:35.743Z,59.47
2023-06-17T07:28:38.029Z,59.29
2023-06-17T07:33:41.796Z,58.88
2023-06-17T07:38:44.084Z,59.34
2023-06-17T07:43:46.294Z,59.39
2023-06-17T07:48:48.492Z,59.03
2023-06-17T07:53:50.716Z,58.71
2023-06-17T07:58:52.974Z,58.76
2023-06-17T08:03:55.447Z,58.71
2023-06-17T08:08:57.869Z,58.06
2023-06-17T08:14:00.075Z,57.45
2023-06-17T08:19:03.415Z,57.04
2023-06-17T08:24:26.921Z,56.73
2023-06-17T08:29:29.326Z,56.31
2023-06-17T08:34:33.880Z,55.98
2023-06-17T08:39:41.170Z,55.37
2023-06-17T08:44:45.709Z,54.56
2023-06-17T08:49:48.422Z,53.80
2023-06-17T08:54:51.045Z,53.55
2023-06-17T08:59:53.238Z,52.66
2023-06-17T09:04:56.221Z,53.05
2023-06-17T09:10:12.917Z,52.39
2023-06-17T09:15:19.293Z,51.96
2023-06-17T09:20:22.174Z,51.07
2023-06-17T09:25:24.967Z,50.59
2023-06-17T09:30:27.264Z,50.27
2023-06-17T09:35:29.557Z,49.91
2023-06-17T09:40:35.281Z,49.20
2023-06-17T09:45:38.173Z,48.14
2023-06-17T09:50:40.885Z,47.88
2023-06-17T09:55:43.531Z,47.06
2023-06-17T10:00:48.168Z,46.25
2023-06-17T10:05:56.814Z,45.79
2023-06-17T10:11:01.715Z,45.52
2023-06-17T10:16:11.072Z,45.17
2023-06-17T10:21:14.916Z,44.97
2023-06-17T10:26:17.188Z,44.84
2023-06-17T10:31:28.637Z,43.89
2023-06-17T10:36:31.676Z,44.08
2023-06-17T10:41:39.768Z,43.36
2023-06-17T10:46:42.048Z,42.93
2023-06-17T10:51:57.891Z,42.61
2023-06-17T10:57:05.964Z,42.15
2023-06-17T11:02:09.388Z,42.09
2023-06-17T11:07:15.141Z,42.60
2023-06-17T11:12:18.044Z,42.42
2023-06-17T11:17:20.320Z,42.42
2023-06-17T11:22:23.906Z,42.90
2023-06-17T11:27:26.284Z,42.80
2023-06-17T11:32:28.832Z,42.86
2023-06-17T11:37:31.560Z,42.53
2023-06-17T11:42:34.359Z,42.42
2023-06-17T11:47:37.579Z,42.53
2023-06-17T11:52:39.938Z,42.39
2023-06-17T11:57:44.368Z,42.13
2023-06-17T12:02:46.802Z,41.98
2023-06-17T12:07:49.160Z,41.99
2023-06-17T12:12:53.059Z,41.82
2023-06-17T12:17:58.464Z,41.85
2023-06-17T12:23:00.736Z,41.40
2023-06-17T12:28:03.660Z,40.85
2023-06-17T12:33:06.019Z,41.98
2023-06-17T12:38:09.648Z,42.02
2023-06-17T12:43:12.827Z,41.52
2023-06-17T12:48:15.315Z,42.21
2023-06-17T12:53:17.656Z,41.21
2023-06-17T12:58:19.859Z,40.78
2023-06-17T13:03:22.972Z,40.93
2023-06-17T13:08:25.204Z,40.34
2023-06-17T13:13:28.645Z,40.26
2023-06-17T13:18:30.940Z,40.31
2023-06-17T13:23:33.248Z,39.57
2023-06-17T13:28:36.473Z,39.90
2023-06-17T13:33:39.304Z,42.03
2023-06-17T13:38:41.793Z,44.58
2023-06-17T13:43:44.129Z,47.13
2023-06-17T13:48:46.397Z,48.58
2023-06-17T13:53:48.614Z,51.17
2023-06-17T13:58:50.894Z,50.56
2023-06-17T14:03:53.540Z,49.90
2023-06-17T14:08:55.795Z,49.92
2023-06-17T14:13:58.167Z,51.35
2023-06-17T14:19:01.055Z,51.28
2023-06-17T14:24:07.428Z,51.48
2023-06-17T14:29:11.091Z,52.40
2023-06-17T14:34:13.312Z,53.18
2023-06-17T14:39:15.859Z,53.23
2023-06-17T14:44:18.472Z,54.75
2023-06-17T14:49:20.737Z,54.14
2023-06-17T14:54:22.994Z,53.56
2023-06-17T14:59:25.327Z,52.17
2023-06-17T15:04:28.139Z,51.60
2023-06-17T15:09:33.594Z,51.27
2023-06-17T15:14:38.618Z,50.68
2023-06-17T15:19:41.182Z,50.57
2023-06-17T15:24:43.605Z,50.37
2023-06-17T15:29:45.950Z,50.00
2023-06-17T15:34:48.344Z,49.57
2023-06-17T15:39:50.734Z,48.92
2023-06-17T15:44:52.958Z,48.68
2023-06-17T15:49:55.288Z,48.35
2023-06-17T15:54:58.139Z,48.11
2023-06-17T16:00:00.444Z,48.26
2023-06-17T16:05:03.211Z,48.30
2023-06-17T16:10:05.748Z,48.54
2023-06-17T16:15:08.625Z,48.52
2023-06-17T16:20:11.665Z,49.21
2023-06-17T16:25:13.984Z,49.48
2023-06-17T16:30:16.418Z,49.00
2023-06-17T16:35:18.732Z,49.02
2023-06-17T16:40:21.481Z,49.25
2023-06-17T16:45:24.284Z,49.48
2023-06-17T16:50:26.910Z,48.94
2023-06-17T17:00:55.786Z,49.29
2023-06-17T17:06:02.399Z,49.50
2023-06-17T17:11:05.975Z,49.70
2023-06-17T17:16:08.390Z,49.90
2023-06-17T17:21:10.907Z,50.29
2023-06-17T17:26:13.891Z,50.41
2023-06-17T17:31:16.324Z,49.98
2023-06-17T17:36:19.339Z,50.41
2023-06-17T17:41:22.175Z,51.01
2023-06-17T17:46:24.551Z,50.84
2023-06-17T17:51:27.078Z,50.37
2023-06-17T17:56:29.761Z,50.23
2023-06-17T18:01:32.754Z,49.89
2023-06-17T18:06:34.986Z,50.57
2023-06-17T18:11:37.666Z,51.16
2023-06-17T18:16:40.138Z,51.67
2023-06-17T18:21:42.336Z,51.73
2023-06-17T18:26:44.637Z,52.75
2023-06-17T18:31:48.587Z,52.80
2023-06-17T18:36:51.267Z,53.10
2023-06-17T18:41:53.495Z,53.38
2023-06-17T18:46:56.183Z,53.44
2023-06-17T18:51:58.700Z,53.30
2023-06-17T18:57:01.580Z,53.63
2023-06-17T19:02:04.850Z,53.83
2023-06-17T19:07:07.172Z,54.01
2023-06-17T19:12:09.944Z,53.77
2023-06-17T19:17:12.251Z,53.95
2023-06-17T19:22:14.468Z,53.88
2023-06-17T19:27:16.736Z,54.98
2023-06-17T19:32:19.067Z,54.48
2023-06-17T19:37:22.723Z,54.51
2023-06-17T19:42:25.045Z,54.25
2023-06-17T19:47:28.596Z,54.60
2023-06-17T19:52:31.016Z,54.71
2023-06-17T19:57:33.349Z,54.54
2023-06-17T20:02:35.662Z,54.42
2023-06-17T20:07:37.956Z,54.50
2023-06-17T20:12:40.257Z,54.67
2023-06-17T20:17:42.547Z,54.79
2023-06-17T20:22:44.844Z,54.96
2023-06-17T20:27:47.300Z,55.00
2023-06-17T20:32:49.729Z,54.33
2023-06-17T20:37:52.697Z,54.35
2023-06-17T20:42:55.122Z,54.30
2023-06-17T20:47:57.727Z,54.07
2023-06-17T20:53:00.038Z,54.00
2023-06-17T20:58:02.468Z,54.11
2023-06-17T21:03:04.916Z,54.15
2023-06-17T21:08:07.407Z,54.47
2023-06-17T21:13:09.627Z,54.25
2023-06-17T21:18:11.795Z,54.45
2023-06-17T21:23:14.027Z,53.98
2023-06-17T21:28:16.253Z,54.28
2023-06-17T21:33:18.724Z,54.48
2023-06-17T21:38:21.673Z,54.39
2023-06-17T21:43:24.068Z,54.14
2023-06-17T21:48:26.410Z,53.83
2023-06-17T21:53:28.727Z,53.50
2023-06-17T21:58:31.114Z,53.31
2023-06-17T22:03:33.430Z,52.62
2023-06-17T22:08:43.143Z,52.51
2023-06-17T22:13:46.744Z,52.57
2023-06-17T22:18:48.977Z,53.13
2023-06-17T22:23:51.304Z,53.79
2023-06-17T22:28:53.565Z,54.48
2023-06-17T22:33:55.786Z,54.66
2023-06-17T22:38:58.007Z,55.28
2023-06-17T22:44:00.783Z,55.35
2023-06-17T22:49:03.017Z,56.02
2023-06-17T22:54:05.329Z,56.34
2023-06-17T22:59:07.549Z,57.55
2023-06-17T23:04:09.919Z,57.49
2023-06-17T23:09:12.347Z,57.84
2023-06-17T23:14:14.635Z,58.07
2023-06-17T23:19:16.955Z,58.43
2023-06-17T23:24:19.889Z,58.58
2023-06-17T23:29:23.892Z,59.24
2023-06-17T23:34:26.094Z,59.96
2023-06-17T23:39:28.606Z,59.47
2023-06-17T23:44:30.806Z,60.42
2023-06-17T23:49:42.304Z,60.52
2023-06-17T23:54:44.685Z,60.93
2023-06-17T23:59:47.737Z,60.58
